createdAt,value
2019-05-18T00:00:28.778Z,99.99
2019-05-18T00:05:25.310Z,99.99
2019-05-18T00:10:21.130Z,99.99
2019-05-18T00:15:17.120Z,99.99
2019-05-18T00:20:12.912Z,99.99
2019-05-18T00:25:08.722Z,99.99
2019-05-18T00:30:05.549Z,99.99
2019-05-18T00:35:01.059Z,99.99
2019-05-18T00:39:57.041Z,99.99
2019-05-18T00:44:54.181Z,99.99
2019-05-18T00:49:50.766Z,99.99
2019-05-18T00:54:47.421Z,99.99
2019-05-18T00:59:42.877Z,99.99
2019-05-18T01:04:39.309Z,99.99
2019-05-18T01:09:35.240Z,99.99
2019-05-18T01:14:31.115Z,99.99
2019-05-18T01:19:26.773Z,99.99
2019-05-18T01:24:22.515Z,99.99
2019-05-18T01:29:18.558Z,99.99
2019-05-18T01:34:14.311Z,99.99
2019-05-18T01:39:11.569Z,99.99
2019-05-18T01:44:07.043Z,99.99
2019-05-18T01:49:02.693Z,99.99
2019-05-18T01:53:59.110Z,99.99
2019-05-18T01:58:55.249Z,99.99
2019-05-18T02:03:52.011Z,99.99
2019-05-18T02:08:47.881Z,99.99
2019-05-18T02:13:44.449Z,99.99
2019-05-18T02:18:39.992Z,99.99
2019-05-18T02:23:35.946Z,99.99
2019-05-18T02:28:31.875Z,99.99
2019-05-18T02:33:28.180Z,99.99
2019-05-18T02:38:24.043Z,99.99
2019-05-18T02:43:19.732Z,99.99
2019-05-18T02:48:15.969Z,99.99
2019-05-18T02:53:11.489Z,99.99
2019-05-18T02:58:07.352Z,99.99
2019-05-18T03:03:02.671Z,99.99
2019-05-18T03:07:58.486Z,99.99
2019-05-18T03:12:54.597Z,99.99
2019-05-18T03:17:50.286Z,99.99
2019-05-18T03:22:46.097Z,99.99
2019-05-18T03:27:41.996Z,99.99
2019-05-18T03:32:37.790Z,99.99
2019-05-18T03:37:33.835Z,99.99
2019-05-18T03:42:29.612Z,99.99
2019-05-18T03:47:26.539Z,99.99
2019-05-18T03:52:23.889Z,99.99
2019-05-18T03:57:19.357Z,99.99
2019-05-18T04:02:14.781Z,99.99
2019-05-18T04:07:10.730Z,99.99
2019-05-18T04:12:07.191Z,99.99
2019-05-18T04:17:03.310Z,99.99
2019-05-18T04:21:59.349Z,99.99
2019-05-18T04:26:57.492Z,99.99
2019-05-18T04:31:53.706Z,99.99
2019-05-18T04:36:50.331Z,99.99
2019-05-18T04:41:46.893Z,99.99
2019-05-18T04:46:43.830Z,99.99
2019-05-18T04:51:40.698Z,99.99
2019-05-18T04:56:37.322Z,99.99
2019-05-18T05:01:33.528Z,99.99
2019-05-18T05:06:29.772Z,99.99
2019-05-18T05:11:26.489Z,99.99
2019-05-18T05:16:22.876Z,99.99
2019-05-18T05:21:18.873Z,99.99
2019-05-18T05:26:15.711Z,99.99
2019-05-18T05:31:11.364Z,99.99
2019-05-18T05:36:06.852Z,99.99
2019-05-18T05:41:02.892Z,99.99
2019-05-18T05:45:59.432Z,99.99
2019-05-18T05:50:57.160Z,99.99
2019-05-18T05:55:53.541Z,99.99
2019-05-18T06:00:48.878Z,99.99
2019-05-18T06:05:44.711Z,99.99
2019-05-18T06:10:40.626Z,99.99
2019-05-18T06:15:36.449Z,99.99
2019-05-18T06:20:33.544Z,99.99
2019-05-18T06:25:34.041Z,99.99
2019-05-18T06:30:28.403Z,99.99
2019-05-18T06:35:24.458Z,99.99
2019-05-18T06:40:21.092Z,99.99
2019-05-18T06:45:16.519Z,99.99
2019-05-18T06:50:13.314Z,99.99
2019-05-18T06:55:09.276Z,99.99
2019-05-18T07:00:05.148Z,99.99
2019-05-18T07:05:01.117Z,99.99
2019-05-18T07:09:57.065Z,99.99
2019-05-18T07:14:52.839Z,99.99
2019-05-18T07:19:49.040Z,99.99
2019-05-18T07:24:45.874Z,99.99
2019-05-18T07:29:41.605Z,99.99
2019-05-18T07:34:38.119Z,99.99
2019-05-18T07:39:36.179Z,99.99
2019-05-18T07:44:32.142Z,99.99
2019-05-18T07:49:29.260Z,99.99
2019-05-18T07:54:27.183Z,95.07
2019-05-18T07:59:25.550Z,91.56
2019-05-18T08:04:24.868Z,87.57
2019-05-18T08:09:22.354Z,81.88
2019-05-18T08:14:19.577Z,79.08
2019-05-18T08:19:17.274Z,77.86
2019-05-18T08:24:14.842Z,77.13
2019-05-18T08:29:10.946Z,71.90
2019-05-18T08:34:06.424Z,75.16
2019-05-18T08:39:02.657Z,74.74
2019-05-18T08:43:59.373Z,73.88
2019-05-18T08:48:56.800Z,71.96
2019-05-18T08:53:52.980Z,68.71
2019-05-18T08:58:48.970Z,72.12
2019-05-18T09:03:44.714Z,73.05
2019-05-18T09:08:40.507Z,71.44
2019-05-18T09:13:36.662Z,71.70
2019-05-18T09:18:33.541Z,70.70
2019-05-18T09:23:29.979Z,70.74
2019-05-18T09:28:27.212Z,66.88
2019-05-18T09:33:23.564Z,69.45
2019-05-18T09:38:20.525Z,67.94
2019-05-18T09:43:15.448Z,71.12
2019-05-18T09:48:11.167Z,69.96
2019-05-18T09:53:08.258Z,72.95
2019-05-18T09:58:05.891Z,70.86
2019-05-18T10:03:02.726Z,69.64
2019-05-18T10:07:59.855Z,68.77
2019-05-18T10:12:56.396Z,68.81
2019-05-18T10:17:52.050Z,68.68
2019-05-18T10:23:04.113Z,68.87
2019-05-18T10:27:53.952Z,66.43
2019-05-18T10:32:49.744Z,63.66
2019-05-18T10:37:45.030Z,63.92
2019-05-18T10:42:39.971Z,66.20
2019-05-18T10:47:35.530Z,66.97
2019-05-18T10:52:31.209Z,67.23
2019-05-18T10:57:26.746Z,66.66
2019-05-18T11:02:22.602Z,68.26
2019-05-18T11:07:18.336Z,69.61
2019-05-18T11:12:14.034Z,70.73
2019-05-18T11:17:11.530Z,71.79
2019-05-18T11:22:10.419Z,66.69
2019-05-18T11:27:08.443Z,64.98
2019-05-18T11:32:06.164Z,63.60
2019-05-18T11:37:03.350Z,62.59
2019-05-18T11:42:00.284Z,58.69
2019-05-18T11:46:57.097Z,60.21
2019-05-18T11:51:53.305Z,58.88
2019-05-18T11:56:49.777Z,58.20
2019-05-18T12:01:45.646Z,59.01
2019-05-18T12:06:41.487Z,59.66
2019-05-18T12:11:37.046Z,60.31
2019-05-18T12:16:32.893Z,58.12
2019-05-18T12:21:28.698Z,56.14
2019-05-18T12:26:21.806Z,57.31
2019-05-18T12:31:19.024Z,56.32
2019-05-18T12:36:15.004Z,56.03
2019-05-18T12:41:09.630Z,55.71
2019-05-18T12:46:07.987Z,56.35
2019-05-18T12:51:03.081Z,54.98
2019-05-18T12:55:59.648Z,54.17
2019-05-18T13:00:56.667Z,53.59
2019-05-18T13:05:52.700Z,53.59
2019-05-18T13:10:49.194Z,50.96
2019-05-18T13:15:46.625Z,49.37
2019-05-18T13:20:43.019Z,48.71
2019-05-18T13:25:39.503Z,43.68
2019-05-18T13:30:36.244Z,45.62
2019-05-18T13:35:32.961Z,44.95
2019-05-18T13:40:27.921Z,46.92
2019-05-18T13:45:23.047Z,50.55
2019-05-18T13:50:18.185Z,55.11
2019-05-18T13:55:13.570Z,56.13
2019-05-18T14:00:08.910Z,56.68
2019-05-18T14:05:05.139Z,56.90
2019-05-18T14:10:01.459Z,56.15
2019-05-18T14:14:57.446Z,55.29
2019-05-18T14:19:52.831Z,56.41
2019-05-18T14:24:48.440Z,57.64
2019-05-18T14:29:45.068Z,57.71
2019-05-18T14:34:41.491Z,57.52
2019-05-18T14:39:36.854Z,57.04
2019-05-18T14:44:33.591Z,59.52
2019-05-18T14:49:28.954Z,57.49
2019-05-18T14:54:25.736Z,58.84
2019-05-18T14:59:21.879Z,57.97
2019-05-18T15:04:18.062Z,57.90
2019-05-18T15:09:15.120Z,56.56
2019-05-18T15:14:10.802Z,56.56
2019-05-18T15:19:08.200Z,56.56
2019-05-18T15:24:04.418Z,56.87
2019-05-18T15:29:01.694Z,56.29
2019-05-18T15:33:57.590Z,55.52
2019-05-18T15:38:53.399Z,58.32
2019-05-18T15:43:49.501Z,57.71
2019-05-18T15:48:45.385Z,58.10
2019-05-18T15:53:41.309Z,57.81
2019-05-18T15:58:37.234Z,58.97
2019-05-18T16:03:33.095Z,59.35
2019-05-18T16:08:29.233Z,58.00
2019-05-18T16:13:26.012Z,56.46
2019-05-18T16:18:21.476Z,57.20
2019-05-18T16:23:18.311Z,57.20
2019-05-18T16:28:14.976Z,57.59
2019-05-18T16:33:10.513Z,57.97
2019-05-18T16:38:06.375Z,57.68
2019-05-18T16:43:02.225Z,56.59
2019-05-18T16:47:57.917Z,59.48
2019-05-18T16:52:53.647Z,58.81
2019-05-18T16:57:49.633Z,60.61
2019-05-18T17:02:46.440Z,60.80
2019-05-18T17:07:43.042Z,61.19
2019-05-18T17:12:39.792Z,61.29
2019-05-18T17:17:35.875Z,61.77
2019-05-18T17:22:32.644Z,60.13
2019-05-18T17:27:28.234Z,61.68
2019-05-18T17:32:25.384Z,62.15
2019-05-18T17:37:20.990Z,62.63
2019-05-18T17:42:16.907Z,62.54
2019-05-18T17:47:12.885Z,61.77
2019-05-18T17:52:08.994Z,62.35
2019-05-18T17:57:08.542Z,62.35
2019-05-18T18:02:03.917Z,61.96
2019-05-18T18:07:00.144Z,64.18
2019-05-18T18:11:57.420Z,64.86
2019-05-18T18:16:53.131Z,65.53
2019-05-18T18:21:49.966Z,65.72
2019-05-18T18:26:45.546Z,66.94
2019-05-18T18:31:41.660Z,67.90
2019-05-18T18:36:37.465Z,69.35
2019-05-18T18:41:33.391Z,69.60
2019-05-18T18:46:29.659Z,69.79
2019-05-18T18:51:25.704Z,70.28
2019-05-18T18:56:21.337Z,72.45
2019-05-18T19:01:18.210Z,74.67
2019-05-18T19:06:13.888Z,75.92
2019-05-18T19:11:09.499Z,78.00
2019-05-18T19:16:07.069Z,78.58
2019-05-18T19:21:02.606Z,80.50
2019-05-18T19:25:58.519Z,81.32
2019-05-18T19:30:55.287Z,82.76
2019-05-18T19:35:50.808Z,83.06
2019-05-18T19:40:46.759Z,83.63
2019-05-18T19:45:43.113Z,83.78
2019-05-18T19:50:38.813Z,84.84
2019-05-18T19:55:35.609Z,84.74
2019-05-18T20:00:31.043Z,85.80
2019-05-18T20:05:26.830Z,86.62
2019-05-18T20:10:22.864Z,87.87
2019-05-18T20:15:19.345Z,89.02
2019-05-18T20:20:15.284Z,89.50
2019-05-18T20:25:11.000Z,89.98
2019-05-18T20:30:06.607Z,90.66
2019-05-18T20:35:04.058Z,90.32
2019-05-18T20:39:59.662Z,91.09
2019-05-18T20:44:55.651Z,92.33
2019-05-18T20:49:51.323Z,92.24
2019-05-18T20:54:48.021Z,93.20
2019-05-18T20:59:43.602Z,93.92
2019-05-18T21:04:40.394Z,94.21
2019-05-18T21:09:36.157Z,95.07
2019-05-18T21:14:31.961Z,96.42
2019-05-18T21:19:27.753Z,95.94
2019-05-18T21:24:23.667Z,96.13
2019-05-18T21:29:19.806Z,97.04
2019-05-18T21:34:18.745Z,97.61
2019-05-18T21:39:13.679Z,98.67
2019-05-18T21:44:09.469Z,98.67
2019-05-18T21:49:05.345Z,99.99
2019-05-18T21:54:01.209Z,99.99
2019-05-18T21:59:10.555Z,99.99
2019-05-18T22:03:57.123Z,99.99
2019-05-18T22:08:52.537Z,99.99
2019-05-18T22:13:49.211Z,99.99
2019-05-18T22:18:44.498Z,99.99
2019-05-18T22:23:41.552Z,99.99
2019-05-18T22:28:37.027Z,99.99
2019-05-18T22:33:32.685Z,99.99
2019-05-18T22:38:28.518Z,99.99
2019-05-18T22:43:25.644Z,99.99
2019-05-18T22:48:21.124Z,99.99
2019-05-18T22:53:17.879Z,99.99
2019-05-18T22:58:13.494Z,99.99
2019-05-18T23:03:09.356Z,99.99
2019-05-18T23:08:05.055Z,99.99
2019-05-18T23:13:01.960Z,99.99
2019-05-18T23:17:58.405Z,99.99
2019-05-18T23:22:55.058Z,99.99
2019-05-18T23:27:50.533Z,99.99
2019-05-18T23:32:50.266Z,99.99
2019-05-18T23:37:45.210Z,99.99
2019-05-18T23:42:41.006Z,99.99
2019-05-18T23:47:36.986Z,99.99
2019-05-18T23:52:32.915Z,99.99
2019-05-18T23:57:28.764Z,99.99
